Sierra Dawn — WDB9913 — position and weather

sailwx.info

Track history (hours):
 
Tides and Currents Weather Stations Pressure Air Temp Water Temp Dewpoint Dewpoint Depression Visibility Wind Speed Wind Dir Waves Ship Positions

Sierra Dawn

Owner: American River Transportation Company, St Louis, MO. More information available from US FCC via Universal Licensing System and Coast Guard Vessel Documentation Center.

Last reported at 2018-May-07 02:47 UTC. Time now 2018-May-22 04:16 UTC.
Position N 39°10' W 090°43'.
Warning: this ship's position is 15 days out of date.

Length 55 m; draft 2.7 m.

Type: Towing. MMSI: 366984980.

Date/timePositionNaut miles runAvg speedWind from/ knotsBaromVisibWave heightAir tempDewpointWater temp
2018-May-07 02:47N 39°10' W 090°43'1 3.9
2018-May-07 02:30N 39°09' W 090°42'0 0.3
2018-May-07 02:00N 39°08' W 090°43'0 0.0
2018-May-07 01:30N 39°08' W 090°43'1 1.4
2018-May-07 01:00N 39°08' W 090°42'3 3.7
2018-May-07 00:10N 39°05' W 090°41'1 3.9
2018-May-06 23:58N 39°04' W 090°42'2 3.4
2018-May-06 23:30N 39°03' W 090°43'2 3.7
2018-May-06 23:00N 39°01' W 090°42'1 1.8
2018-May-06 22:30N 39°00' W 090°41'0 0.2
2018-May-06 21:54N 39°00' W 090°41'0 0.0
2018-May-06 21:30N 39°00' W 090°41'2 2.6
2018-May-06 20:39N 38°58' W 090°40'1 4.6
2018-May-06 20:28N 38°57' W 090°40'2 4.4
2018-May-06 20:00N 38°55' W 090°40'2 4.3
2018-May-06 19:31N 38°54' W 090°38'2 4.2
2018-May-06 19:00N 38°52' W 090°36'2 4.4
2018-May-06 18:31N 38°52' W 090°33'2 4.1
2018-May-06 17:58N 38°54' W 090°31'2 4.2
2018-May-06 17:30N 38°56' W 090°30'2 3.8
2018-May-06 17:00N 38°57' W 090°28'2 3.9
2018-May-06 16:30N 38°58' W 090°26'2 4.0
2018-May-06 16:00N 38°58' W 090°23'2 4.0
2018-May-06 15:30N 38°57' W 090°21'2 4.2
2018-May-06 15:00N 38°55' W 090°19'2 4.1
2018-May-06 14:30N 38°55' W 090°16'2 3.9
2018-May-06 14:00N 38°55' W 090°14'2 4.0
2018-May-06 13:30N 38°54' W 090°12'2 4.4
2018-May-06 13:00N 38°52' W 090°09'1 1.1
2018-May-06 12:30N 38°52' W 090°09'1 2.3
2018-May-06 12:00N 38°51' W 090°08'2 3.5
2018-May-06 11:30N 38°50' W 090°07'2 4.6
2018-May-06 11:00N 38°48' W 090°07'1 2.0
2018-May-06 10:29N 38°47' W 090°08'0 0.0
2018-May-06 10:00N 38°47' W 090°08'0 0.8
2018-May-06 09:30N 38°46' W 090°08'2 3.6
2018-May-06 09:00N 38°45' W 090°09'2 3.5
2018-May-06 08:30N 38°43' W 090°10'1 2.6
2018-May-06 08:00N 38°42' W 090°11'0 0.5
2018-May-06 07:30N 38°42' W 090°11'1 1.9
2018-May-06 07:00N 38°41' W 090°11'2 4.2
2018-May-06 06:30N 38°39' W 090°11'2 4.1
2018-May-06 05:54N 38°36' W 090°11'2 0.1
2018-May-05 07:00N 38°35' W 090°13'2 3.1
2018-May-05 06:26N 38°36' W 090°12'0 0.4
2018-May-05 06:00N 38°36' W 090°12'0 0.0
2018-May-05 05:30N 38°36' W 090°12'0 0.2
2018-May-05 05:00N 38°36' W 090°12'0 0.1
2018-May-05 04:22N 38°36' W 090°12'2 3.4
2018-May-05 03:43N 38°38' W 090°11'210.0
2018-May-05 03:30N 38°40' W 090°11'8 2.5
2018-May-05 00:23N 38°48' W 090°07'3 8.5
2018-May-05 00:00N 38°51' W 090°07'2 4.7
2018-May-04 23:30N 38°52' W 090°09'0 0.5
2018-May-04 23:00N 38°52' W 090°09'3 5.1
2018-May-04 22:30N 38°54' W 090°12'3 6.4
2018-May-04 22:00N 38°55' W 090°16'3 6.3
2018-May-04 21:30N 38°56' W 090°20'3 6.5
2018-May-04 21:00N 38°57' W 090°23'3 6.2
2018-May-04 20:30N 38°57' W 090°27'3 6.0
2018-May-04 20:00N 38°55' W 090°30'3 6.2
2018-May-04 19:30N 38°53' W 090°32'3 6.1
2018-May-04 19:00N 38°52' W 090°36'3 6.1
2018-May-04 18:30N 38°54' W 090°38'3 6.3
2018-May-04 18:00N 38°57' W 090°40'3 5.7
2018-May-04 17:30N 39°00' W 090°41'0 0.5
2018-May-04 17:00N 39°00' W 090°41'0 0.1
2018-May-04 16:30N 39°00' W 090°41'0 0.1
2018-May-04 16:00N 39°00' W 090°41'0 0.3
2018-May-04 15:30N 39°00' W 090°42'2 3.4
2018-May-04 15:00N 39°02' W 090°42'2 3.6
2018-May-04 14:30N 39°04' W 090°42'0 0.0
2018-May-04 14:00N 39°04' W 090°42'0 0.0
2018-May-04 13:30N 39°04' W 090°42'0 0.0
2018-May-04 13:00N 39°04' W 090°42'0 0.0
2018-May-04 12:30N 39°04' W 090°42'0 0.0
2018-May-04 12:00N 39°04' W 090°42'0 0.0
2018-May-04 11:30N 39°04' W 090°42'0 0.0
2018-May-04 11:00N 39°04' W 090°42'0 0.0
2018-May-04 10:30N 39°04' W 090°42'0 0.0
2018-May-04 10:00N 39°04' W 090°42'0 0.0
2018-May-04 09:30N 39°04' W 090°42'0 0.0
2018-May-04 09:00N 39°04' W 090°42'0 0.0
2018-May-04 08:30N 39°04' W 090°42'0 0.0
2018-May-04 08:00N 39°04' W 090°42'0 0.0
2018-May-04 07:31N 39°04' W 090°42'0 0.0
2018-May-04 07:00N 39°04' W 090°42'0 0.0
2018-May-04 06:30N 39°04' W 090°42'0 0.0
2018-May-04 06:00N 39°04' W 090°42'2 3.1
2018-May-04 05:20N 39°05' W 090°41'2 6.0
2018-May-04 05:00N 39°07' W 090°41'  
Track history (hours):
 
Tides and Currents Weather Stations Pressure Air Temp Water Temp Dewpoint Dewpoint Depression Visibility Wind Speed Wind Dir Waves Ship Positions

Sierra Dawn

Owner: American River Transportation Company, St Louis, MO. More information available from US FCC via Universal Licensing System and Coast Guard Vessel Documentation Center.

Last reported at 2018-May-07 02:47 UTC. Time now 2018-May-22 04:16 UTC.
Position N 39°10' W 090°43'.
Warning: this ship's position is 15 days out of date.

Length 55 m; draft 2.7 m.

Type: Towing. MMSI: 366984980.

Date/timePositionNaut miles runAvg speedWind from/ knotsBaromVisibWave heightAir tempDewpointWater temp
2018-May-07 02:47N 39°10' W 090°43'1 3.9
2018-May-07 02:30N 39°09' W 090°42'0 0.3
2018-May-07 02:00N 39°08' W 090°43'0 0.0
2018-May-07 01:30N 39°08' W 090°43'1 1.4
2018-May-07 01:00N 39°08' W 090°42'3 3.7
2018-May-07 00:10N 39°05' W 090°41'1 3.9
2018-May-06 23:58N 39°04' W 090°42'2 3.4
2018-May-06 23:30N 39°03' W 090°43'2 3.7
2018-May-06 23:00N 39°01' W 090°42'1 1.8
2018-May-06 22:30N 39°00' W 090°41'0 0.2
2018-May-06 21:54N 39°00' W 090°41'0 0.0
2018-May-06 21:30N 39°00' W 090°41'2 2.6
2018-May-06 20:39N 38°58' W 090°40'1 4.6
2018-May-06 20:28N 38°57' W 090°40'2 4.4
2018-May-06 20:00N 38°55' W 090°40'2 4.3
2018-May-06 19:31N 38°54' W 090°38'2 4.2
2018-May-06 19:00N 38°52' W 090°36'2 4.4
2018-May-06 18:31N 38°52' W 090°33'2 4.1
2018-May-06 17:58N 38°54' W 090°31'2 4.2
2018-May-06 17:30N 38°56' W 090°30'2 3.8
2018-May-06 17:00N 38°57' W 090°28'2 3.9
2018-May-06 16:30N 38°58' W 090°26'2 4.0
2018-May-06 16:00N 38°58' W 090°23'2 4.0
2018-May-06 15:30N 38°57' W 090°21'2 4.2
2018-May-06 15:00N 38°55' W 090°19'2 4.1
2018-May-06 14:30N 38°55' W 090°16'2 3.9
2018-May-06 14:00N 38°55' W 090°14'2 4.0
2018-May-06 13:30N 38°54' W 090°12'2 4.4
2018-May-06 13:00N 38°52' W 090°09'1 1.1
2018-May-06 12:30N 38°52' W 090°09'1 2.3
2018-May-06 12:00N 38°51' W 090°08'2 3.5
2018-May-06 11:30N 38°50' W 090°07'2 4.6
2018-May-06 11:00N 38°48' W 090°07'1 2.0
2018-May-06 10:29N 38°47' W 090°08'0 0.0
2018-May-06 10:00N 38°47' W 090°08'0 0.8
2018-May-06 09:30N 38°46' W 090°08'2 3.6
2018-May-06 09:00N 38°45' W 090°09'2 3.5
2018-May-06 08:30N 38°43' W 090°10'1 2.6
2018-May-06 08:00N 38°42' W 090°11'0 0.5
2018-May-06 07:30N 38°42' W 090°11'1 1.9
2018-May-06 07:00N 38°41' W 090°11'2 4.2
2018-May-06 06:30N 38°39' W 090°11'2 4.1
2018-May-06 05:54N 38°36' W 090°11'2 0.1
2018-May-05 07:00N 38°35' W 090°13'2 3.1
2018-May-05 06:26N 38°36' W 090°12'0 0.4
2018-May-05 06:00N 38°36' W 090°12'0 0.0
2018-May-05 05:30N 38°36' W 090°12'0 0.2
2018-May-05 05:00N 38°36' W 090°12'0 0.1
2018-May-05 04:22N 38°36' W 090°12'2 3.4
2018-May-05 03:43N 38°38' W 090°11'210.0
2018-May-05 03:30N 38°40' W 090°11'8 2.5
2018-May-05 00:23N 38°48' W 090°07'3 8.5
2018-May-05 00:00N 38°51' W 090°07'2 4.7
2018-May-04 23:30N 38°52' W 090°09'0 0.5
2018-May-04 23:00N 38°52' W 090°09'3 5.1
2018-May-04 22:30N 38°54' W 090°12'3 6.4
2018-May-04 22:00N 38°55' W 090°16'3 6.3
2018-May-04 21:30N 38°56' W 090°20'3 6.5
2018-May-04 21:00N 38°57' W 090°23'3 6.2
2018-May-04 20:30N 38°57' W 090°27'3 6.0
2018-May-04 20:00N 38°55' W 090°30'3 6.2
2018-May-04 19:30N 38°53' W 090°32'3 6.1
2018-May-04 19:00N 38°52' W 090°36'3 6.1
2018-May-04 18:30N 38°54' W 090°38'3 6.3
2018-May-04 18:00N 38°57' W 090°40'3 5.7
2018-May-04 17:30N 39°00' W 090°41'0 0.5
2018-May-04 17:00N 39°00' W 090°41'0 0.1
2018-May-04 16:30N 39°00' W 090°41'0 0.1
2018-May-04 16:00N 39°00' W 090°41'0 0.3
2018-May-04 15:30N 39°00' W 090°42'2 3.4
2018-May-04 15:00N 39°02' W 090°42'2 3.6
2018-May-04 14:30N 39°04' W 090°42'0 0.0
2018-May-04 14:00N 39°04' W 090°42'0 0.0
2018-May-04 13:30N 39°04' W 090°42'0 0.0
2018-May-04 13:00N 39°04' W 090°42'0 0.0
2018-May-04 12:30N 39°04' W 090°42'0 0.0
2018-May-04 12:00N 39°04' W 090°42'0 0.0
2018-May-04 11:30N 39°04' W 090°42'0 0.0
2018-May-04 11:00N 39°04' W 090°42'0 0.0
2018-May-04 10:30N 39°04' W 090°42'0 0.0
2018-May-04 10:00N 39°04' W 090°42'0 0.0
2018-May-04 09:30N 39°04' W 090°42'0 0.0
2018-May-04 09:00N 39°04' W 090°42'0 0.0
2018-May-04 08:30N 39°04' W 090°42'0 0.0
2018-May-04 08:00N 39°04' W 090°42'0 0.0
2018-May-04 07:31N 39°04' W 090°42'0 0.0
2018-May-04 07:00N 39°04' W 090°42'0 0.0
2018-May-04 06:30N 39°04' W 090°42'0 0.0
2018-May-04 06:00N 39°04' W 090°42'2 3.1
2018-May-04 05:20N 39°05' W 090°41'2 6.0
2018-May-04 05:00N 39°07' W 090°41'  

Dump ship's entire track history